createdAt,value
2018-12-27T00:01:53.259Z,2.70
2018-12-27T00:04:24.200Z,2.80
2018-12-27T00:06:55.015Z,3.00
2018-12-27T00:09:25.846Z,3.10
2018-12-27T00:11:56.556Z,3.20
2018-12-27T00:14:27.203Z,3.20
2018-12-27T00:16:57.928Z,3.20
2018-12-27T00:19:28.986Z,3.20
2018-12-27T00:21:59.783Z,3.20
2018-12-27T00:24:30.439Z,3.20
2018-12-27T00:27:01.259Z,3.30
2018-12-27T00:29:31.924Z,3.30
2018-12-27T00:32:02.947Z,3.30
2018-12-27T00:34:34.072Z,3.30
2018-12-27T00:37:05.198Z,3.30
2018-12-27T00:39:36.179Z,3.30
2018-12-27T00:42:07.464Z,3.40
2018-12-27T00:44:38.465Z,3.50
2018-12-27T00:47:09.534Z,3.50
2018-12-27T00:49:40.552Z,3.60
2018-12-27T00:52:11.599Z,3.60
2018-12-27T00:54:42.591Z,3.60
2018-12-27T00:57:13.601Z,3.60
2018-12-27T00:59:44.793Z,3.60
2018-12-27T01:02:16.473Z,3.50
2018-12-27T01:04:47.786Z,3.60
2018-12-27T01:07:18.765Z,3.60
2018-12-27T01:09:49.843Z,3.70
2018-12-27T01:12:20.876Z,3.60
2018-12-27T01:14:51.867Z,3.70
2018-12-27T01:17:22.931Z,3.70
2018-12-27T01:19:54.024Z,3.70
2018-12-27T01:22:25.232Z,3.80
2018-12-27T01:24:56.396Z,3.80
2018-12-27T01:27:27.655Z,3.80
2018-12-27T01:29:58.696Z,3.80
2018-12-27T01:32:32.336Z,3.80
2018-12-27T01:35:03.402Z,3.80
2018-12-27T01:37:34.409Z,3.80
2018-12-27T01:40:05.552Z,3.90
2018-12-27T01:42:36.588Z,3.90
2018-12-27T01:45:07.759Z,4.00
2018-12-27T01:47:38.804Z,4.00
2018-12-27T01:50:09.795Z,4.00
2018-12-27T01:52:40.874Z,4.00
2018-12-27T01:55:11.972Z,4.00
2018-12-27T01:57:42.932Z,3.90
2018-12-27T02:00:14.102Z,3.90
2018-12-27T02:02:45.144Z,3.90
2018-12-27T02:05:16.364Z,4.00
2018-12-27T02:07:47.371Z,3.90
2018-12-27T02:10:18.407Z,3.90
2018-12-27T02:12:49.459Z,3.90
2018-12-27T02:15:20.471Z,3.90
2018-12-27T02:17:51.539Z,3.80
2018-12-27T02:20:22.670Z,3.80
2018-12-27T02:22:53.740Z,3.80
2018-12-27T02:25:24.931Z,3.80
2018-12-27T02:27:55.991Z,3.90
2018-12-27T02:30:27.053Z,3.90
2018-12-27T02:32:58.095Z,4.00
2018-12-27T02:35:29.275Z,4.00
2018-12-27T02:38:00.325Z,4.10
2018-12-27T02:40:31.384Z,4.10
2018-12-27T02:43:02.608Z,4.10
2018-12-27T02:45:33.615Z,4.10
2018-12-27T02:48:04.763Z,4.20
2018-12-27T02:50:35.936Z,4.10
2018-12-27T02:53:07.303Z,4.20
2018-12-27T02:55:38.300Z,4.10
2018-12-27T02:58:09.544Z,4.20
2018-12-27T03:00:40.572Z,4.20
2018-12-27T03:03:11.593Z,4.30
2018-12-27T03:05:42.628Z,4.30
2018-12-27T03:08:13.644Z,4.30
2018-12-27T03:10:44.832Z,4.20
2018-12-27T03:13:15.893Z,4.20
2018-12-27T03:15:47.143Z,4.20
2018-12-27T03:18:18.216Z,4.20
2018-12-27T03:20:49.232Z,4.20
2018-12-27T03:23:20.275Z,4.10
2018-12-27T03:25:51.312Z,4.10
2018-12-27T03:28:22.383Z,4.10
2018-12-27T03:30:53.415Z,4.10
2018-12-27T03:33:24.679Z,4.00
2018-12-27T03:35:55.732Z,3.90
2018-12-27T03:38:26.746Z,4.00
2018-12-27T03:40:57.795Z,4.00
2018-12-27T03:43:28.804Z,4.00
2018-12-27T03:45:59.859Z,4.00
2018-12-27T03:48:30.845Z,4.00
2018-12-27T03:51:01.936Z,4.00
2018-12-27T03:53:32.903Z,4.00
2018-12-27T03:56:03.904Z,4.00
2018-12-27T03:58:34.980Z,4.00
2018-12-27T04:01:05.995Z,4.10
2018-12-27T04:03:37.011Z,4.00
2018-12-27T04:06:08.048Z,4.00
2018-12-27T04:08:39.205Z,4.00
2018-12-27T04:11:10.293Z,3.90
2018-12-27T04:13:41.271Z,3.90
2018-12-27T04:16:11.987Z,4.00
2018-12-27T04:18:42.705Z,4.00
2018-12-27T04:21:13.412Z,3.90
2018-12-27T04:23:44.086Z,3.90
2018-12-27T04:26:14.908Z,4.00
2018-12-27T04:28:45.655Z,4.00
2018-12-27T04:31:16.467Z,4.00
2018-12-27T04:33:47.171Z,4.00
2018-12-27T04:36:18.046Z,4.00
2018-12-27T04:38:48.789Z,3.90
2018-12-27T04:41:19.470Z,3.90
2018-12-27T04:43:50.291Z,3.80
2018-12-27T04:46:20.998Z,3.80
2018-12-27T04:48:51.783Z,3.80
2018-12-27T04:51:22.413Z,3.80
2018-12-27T04:53:53.175Z,3.80
2018-12-27T04:56:23.945Z,3.80
2018-12-27T04:58:54.609Z,3.80
2018-12-27T05:01:25.553Z,3.80
2018-12-27T05:03:56.271Z,3.80
2018-12-27T05:06:27.140Z,4.10
2018-12-27T05:08:57.989Z,3.80
2018-12-27T05:11:28.692Z,3.90
2018-12-27T05:13:59.511Z,3.80
2018-12-27T05:16:30.216Z,3.80
2018-12-27T05:19:00.876Z,3.80
2018-12-27T05:21:31.642Z,3.70
2018-12-27T05:24:02.331Z,3.70
2018-12-27T05:26:32.975Z,3.70
2018-12-27T05:29:03.728Z,3.70
2018-12-27T05:31:34.343Z,4.00
2018-12-27T05:34:05.137Z,3.70
2018-12-27T05:36:35.764Z,3.70
2018-12-27T05:39:07.492Z,3.70
2018-12-27T05:41:38.156Z,3.70
2018-12-27T05:44:08.961Z,3.60
2018-12-27T05:46:39.696Z,3.70
2018-12-27T05:49:10.343Z,3.60
2018-12-27T05:51:40.991Z,3.60
2018-12-27T05:54:11.709Z,3.60
2018-12-27T05:56:42.445Z,3.60
2018-12-27T05:59:13.107Z,3.60
2018-12-27T06:01:43.948Z,3.60
2018-12-27T06:04:14.860Z,3.60
2018-12-27T06:06:45.747Z,3.60
2018-12-27T06:09:16.467Z,3.60
2018-12-27T06:11:47.140Z,3.20
2018-12-27T06:14:17.845Z,3.50
2018-12-27T06:16:48.475Z,3.40
2018-12-27T06:19:19.323Z,3.40
2018-12-27T06:21:50.065Z,3.10
2018-12-27T06:24:20.843Z,3.30
2018-12-27T06:26:51.564Z,3.40
2018-12-27T06:29:22.199Z,3.30
2018-12-27T06:31:52.864Z,3.30
2018-12-27T06:34:23.576Z,3.40
2018-12-27T06:36:54.239Z,3.20
2018-12-27T06:39:25.131Z,3.20
2018-12-27T06:41:55.951Z,3.20
2018-12-27T06:44:26.654Z,3.20
2018-12-27T06:46:57.261Z,3.20
2018-12-27T06:49:27.935Z,3.00
2018-12-27T06:51:58.722Z,3.20
2018-12-27T06:54:29.453Z,3.20
2018-12-27T06:57:00.139Z,2.80
2018-12-27T06:59:30.832Z,3.20
2018-12-27T07:02:01.563Z,3.20
2018-12-27T07:04:32.202Z,3.20
2018-12-27T07:07:02.959Z,3.20
2018-12-27T07:09:33.704Z,3.20
2018-12-27T07:12:04.372Z,3.30
2018-12-27T07:14:35.296Z,3.20
2018-12-27T07:17:06.099Z,3.20
2018-12-27T07:19:36.817Z,3.20
2018-12-27T07:22:07.692Z,3.30
2018-12-27T07:24:38.571Z,3.30
2018-12-27T07:27:09.410Z,3.40
2018-12-27T07:29:40.044Z,3.40
2018-12-27T07:32:10.759Z,3.40
2018-12-27T07:34:41.408Z,3.30
2018-12-27T07:37:12.207Z,3.40
2018-12-27T07:39:42.851Z,3.40
2018-12-27T07:42:13.585Z,3.50
2018-12-27T07:44:44.269Z,3.50
2018-12-27T07:47:14.992Z,3.30
2018-12-27T07:49:45.643Z,3.60
2018-12-27T07:52:16.403Z,3.50
2018-12-27T07:54:47.096Z,3.60
2018-12-27T07:57:18.074Z,3.70
2018-12-27T07:59:48.984Z,3.60
2018-12-27T08:02:19.690Z,3.60
2018-12-27T08:04:50.379Z,4.00
2018-12-27T08:07:21.018Z,3.90
2018-12-27T08:09:51.723Z,3.90
2018-12-27T08:12:22.453Z,3.90
2018-12-27T08:14:53.156Z,3.90
2018-12-27T08:17:23.996Z,3.90
2018-12-27T08:19:54.724Z,3.90
2018-12-27T08:22:25.538Z,3.90
2018-12-27T08:24:56.255Z,4.00
2018-12-27T08:27:26.969Z,4.00
2018-12-27T08:29:57.832Z,4.10
2018-12-27T08:32:28.739Z,4.20
2018-12-27T08:34:59.576Z,4.20
2018-12-27T08:37:30.257Z,4.20
2018-12-27T08:40:00.924Z,4.20
2018-12-27T08:42:31.604Z,4.30
2018-12-27T08:45:02.332Z,4.30
2018-12-27T08:47:32.975Z,4.20
2018-12-27T08:50:03.788Z,4.10
2018-12-27T08:52:34.451Z,4.20
2018-12-27T08:55:05.412Z,4.30
2018-12-27T08:57:36.189Z,4.40
2018-12-27T09:00:07.340Z,4.50
2018-12-27T09:02:38.131Z,4.60
2018-12-27T09:05:08.787Z,4.60
2018-12-27T09:07:39.530Z,4.70
2018-12-27T09:10:10.432Z,4.60
2018-12-27T09:12:41.214Z,4.60
2018-12-27T09:15:11.951Z,4.70
2018-12-27T09:17:42.668Z,4.90
2018-12-27T09:20:13.444Z,5.00
2018-12-27T09:22:44.262Z,5.10
2018-12-27T09:25:15.141Z,5.10
2018-12-27T09:27:45.992Z,5.00
2018-12-27T09:30:16.808Z,4.90
2018-12-27T09:32:47.515Z,4.90
2018-12-27T09:35:18.148Z,4.30
2018-12-27T09:37:48.859Z,4.60
2018-12-27T09:40:19.509Z,4.60
2018-12-27T09:42:50.217Z,4.70
2018-12-27T09:45:20.918Z,4.80
2018-12-27T09:47:51.639Z,4.80
2018-12-27T09:50:22.296Z,4.90
2018-12-27T09:52:53.020Z,5.00
2018-12-27T09:55:23.752Z,4.90
2018-12-27T09:57:54.435Z,5.00
2018-12-27T10:00:25.253Z,5.10
2018-12-27T10:02:56.132Z,5.10
2018-12-27T10:05:33.608Z,5.10
2018-12-27T10:07:59.506Z,5.00
2018-12-27T10:10:30.191Z,5.00
2018-12-27T10:13:00.939Z,5.10
2018-12-27T10:15:31.599Z,5.00
2018-12-27T10:18:02.311Z,5.00
2018-12-27T10:20:33.031Z,5.00
2018-12-27T10:23:03.697Z,5.00
2018-12-27T10:25:34.359Z,5.00
2018-12-27T10:28:05.226Z,5.10
2018-12-27T10:30:36.104Z,5.00
2018-12-27T10:33:06.985Z,5.00
2018-12-27T10:35:41.042Z,5.00
2018-12-27T10:38:10.114Z,4.90
2018-12-27T10:40:40.760Z,4.90
2018-12-27T10:43:11.432Z,5.00
2018-12-27T10:45:42.160Z,5.00
2018-12-27T10:48:13.200Z,5.00
2018-12-27T10:50:43.844Z,4.90
2018-12-27T10:53:14.552Z,4.90
2018-12-27T10:55:45.316Z,4.80
2018-12-27T10:58:16.002Z,4.80
2018-12-27T11:00:46.924Z,4.70
2018-12-27T11:03:17.788Z,4.80
2018-12-27T11:05:49.044Z,4.80
2018-12-27T11:08:19.960Z,4.80
2018-12-27T11:10:50.600Z,4.80
2018-12-27T11:13:21.366Z,4.90
2018-12-27T11:15:52.037Z,4.90
2018-12-27T11:18:22.776Z,4.90
2018-12-27T11:20:53.496Z,4.90
2018-12-27T11:23:24.171Z,5.00
2018-12-27T11:25:54.867Z,5.00
2018-12-27T11:28:25.806Z,5.00
2018-12-27T11:30:58.061Z,5.00
2018-12-27T11:33:29.137Z,5.00
2018-12-27T11:35:59.785Z,4.80
2018-12-27T11:38:30.459Z,4.80
2018-12-27T11:41:01.213Z,4.80
2018-12-27T11:43:31.908Z,4.90
2018-12-27T11:46:02.564Z,4.90
2018-12-27T11:48:33.356Z,5.00
2018-12-27T11:51:04.032Z,5.00
2018-12-27T11:53:34.696Z,5.00
2018-12-27T11:56:05.616Z,5.00
2018-12-27T11:58:36.268Z,5.10
2018-12-27T12:01:07.120Z,5.10
2018-12-27T12:03:37.768Z,5.20
2018-12-27T12:06:08.610Z,5.20
2018-12-27T12:08:39.491Z,5.20
2018-12-27T12:11:10.172Z,5.10
2018-12-27T12:13:40.890Z,5.00
2018-12-27T12:16:11.564Z,5.10
2018-12-27T12:18:42.345Z,5.10
2018-12-27T12:21:12.990Z,5.10
2018-12-27T12:23:43.925Z,5.10
2018-12-27T12:26:14.588Z,5.10
2018-12-27T12:28:45.320Z,5.10
2018-12-27T12:31:16.076Z,5.20
2018-12-27T12:33:46.711Z,5.10
2018-12-27T12:36:17.436Z,5.20
2018-12-27T12:38:48.182Z,5.20
2018-12-27T12:41:18.939Z,5.20
2018-12-27T12:43:49.813Z,5.30
2018-12-27T12:46:20.512Z,5.20
2018-12-27T12:48:51.181Z,5.20
2018-12-27T12:51:23.179Z,5.40
2018-12-27T12:53:53.882Z,5.30
2018-12-27T12:56:24.752Z,5.30
2018-12-27T12:58:55.498Z,5.30
2018-12-27T13:01:26.487Z,5.30
2018-12-27T13:03:57.167Z,5.30
2018-12-27T13:06:28.089Z,5.40
2018-12-27T13:08:58.740Z,5.50
2018-12-27T13:11:29.565Z,5.60
2018-12-27T13:14:00.228Z,5.50
2018-12-27T13:16:30.923Z,5.60
2018-12-27T13:19:01.560Z,5.60
2018-12-27T13:21:32.298Z,5.70
2018-12-27T13:24:02.944Z,5.60
2018-12-27T13:26:33.623Z,5.60
2018-12-27T13:29:04.364Z,5.60
2018-12-27T13:31:35.179Z,5.60
2018-12-27T13:34:05.946Z,5.60
2018-12-27T13:36:36.611Z,5.70
2018-12-27T13:39:08.849Z,5.80
2018-12-27T13:41:39.990Z,5.70
2018-12-27T13:44:10.769Z,5.70
2018-12-27T13:46:41.460Z,5.80
2018-12-27T13:49:12.192Z,5.80
2018-12-27T13:51:42.836Z,5.80
2018-12-27T13:54:13.584Z,5.80
2018-12-27T13:56:44.328Z,5.90
2018-12-27T13:59:15.019Z,5.80
2018-12-27T14:01:46.888Z,5.90
2018-12-27T14:04:17.728Z,5.90
2018-12-27T14:06:48.497Z,5.90
2018-12-27T14:09:19.337Z,5.90
2018-12-27T14:11:50.062Z,5.90
2018-12-27T14:14:20.833Z,5.90
2018-12-27T14:16:51.527Z,5.90
2018-12-27T14:19:22.261Z,5.80
2018-12-27T14:21:53.220Z,5.80
2018-12-27T14:24:24.392Z,5.90
2018-12-27T14:26:55.138Z,5.90
2018-12-27T14:29:26.014Z,6.00
2018-12-27T14:31:56.934Z,6.00
2018-12-27T14:34:27.624Z,6.00
2018-12-27T14:36:58.276Z,5.90
2018-12-27T14:39:29.132Z,5.90
2018-12-27T14:41:59.859Z,6.00
2018-12-27T14:44:30.536Z,6.00
2018-12-27T14:47:01.248Z,6.00
2018-12-27T14:49:31.948Z,6.00
2018-12-27T14:52:02.611Z,6.00
2018-12-27T14:54:33.344Z,5.90
2018-12-27T14:57:04.140Z,6.00
2018-12-27T14:59:34.812Z,5.90
2018-12-27T15:02:06.004Z,5.90
2018-12-27T15:04:36.699Z,5.90
2018-12-27T15:07:07.356Z,5.90
2018-12-27T15:09:38.091Z,5.90
2018-12-27T15:12:08.801Z,5.90
2018-12-27T15:14:39.509Z,5.90
2018-12-27T15:17:10.323Z,5.90
2018-12-27T15:19:40.976Z,5.90
2018-12-27T15:22:11.697Z,5.90
2018-12-27T15:24:42.591Z,5.90
2018-12-27T15:27:13.331Z,5.90
2018-12-27T15:29:44.185Z,5.90
2018-12-27T15:32:14.857Z,5.90
2018-12-27T15:34:45.730Z,6.00
2018-12-27T15:37:16.519Z,6.00
2018-12-27T15:39:47.560Z,6.00
2018-12-27T15:42:19.160Z,6.10
2018-12-27T15:44:49.895Z,6.20
2018-12-27T15:47:20.755Z,6.20
2018-12-27T15:49:51.447Z,6.10
2018-12-27T15:52:22.095Z,6.20
2018-12-27T15:54:52.891Z,6.10
2018-12-27T15:57:23.549Z,6.20
2018-12-27T15:59:54.260Z,6.20
2018-12-27T16:02:25.016Z,6.20
2018-12-27T16:04:55.728Z,6.10
2018-12-27T16:07:26.654Z,6.10
2018-12-27T16:09:57.338Z,6.10
2018-12-27T16:12:28.011Z,6.10
2018-12-27T16:15:01.162Z,6.10
2018-12-27T16:17:31.877Z,6.20
2018-12-27T16:20:02.552Z,6.20
2018-12-27T16:22:33.332Z,6.20
2018-12-27T16:25:04.126Z,6.30
2018-12-27T16:27:34.780Z,6.30
2018-12-27T16:30:05.918Z,6.30
2018-12-27T16:32:36.632Z,6.30
2018-12-27T16:35:07.344Z,6.30
2018-12-27T16:37:38.067Z,6.30
2018-12-27T16:40:09.275Z,6.30
2018-12-27T16:42:39.979Z,6.30
2018-12-27T16:45:10.673Z,6.40
2018-12-27T16:47:41.450Z,6.40
2018-12-27T16:50:12.068Z,6.40
2018-12-27T16:52:42.755Z,6.40
2018-12-27T16:55:13.397Z,6.30
2018-12-27T16:57:44.092Z,6.40
2018-12-27T17:00:15.355Z,6.40
2018-12-27T17:02:46.224Z,6.30
2018-12-27T17:05:17.274Z,6.30
2018-12-27T17:07:47.967Z,6.30
2018-12-27T17:10:18.710Z,6.30
2018-12-27T17:12:49.373Z,6.30
2018-12-27T17:15:20.115Z,6.30
2018-12-27T17:17:50.861Z,6.30
2018-12-27T17:20:21.638Z,6.30
2018-12-27T17:22:52.359Z,6.30
2018-12-27T17:25:23.071Z,6.30
2018-12-27T17:27:53.781Z,6.40
2018-12-27T17:30:24.814Z,6.40
2018-12-27T17:32:55.627Z,6.50
2018-12-27T17:35:26.420Z,6.50
2018-12-27T17:37:57.108Z,6.50
2018-12-27T17:40:27.764Z,6.60
2018-12-27T17:42:58.705Z,6.60
2018-12-27T17:45:29.417Z,6.60
2018-12-27T17:48:00.084Z,6.60
2018-12-27T17:50:31.111Z,6.60
2018-12-27T17:53:01.870Z,6.60
2018-12-27T17:55:32.539Z,6.60
2018-12-27T17:58:03.241Z,6.60
2018-12-27T18:00:33.960Z,6.60
2018-12-27T18:03:04.644Z,6.60
2018-12-27T18:05:35.368Z,6.60
2018-12-27T18:08:06.118Z,6.60
2018-12-27T18:10:36.784Z,6.60
2018-12-27T18:13:07.510Z,6.70
2018-12-27T18:15:38.217Z,6.70
2018-12-27T18:18:08.927Z,6.70
2018-12-27T18:20:39.658Z,6.70
2018-12-27T18:23:10.381Z,6.70
2018-12-27T18:25:41.698Z,6.60
2018-12-27T18:28:12.531Z,6.70
2018-12-27T18:30:43.244Z,6.50
2018-12-27T18:33:14.032Z,6.60
2018-12-27T18:35:44.731Z,6.60
2018-12-27T18:38:15.429Z,6.50
2018-12-27T18:40:46.311Z,6.50
2018-12-27T18:43:16.995Z,6.60
2018-12-27T18:45:47.756Z,6.50
2018-12-27T18:48:18.523Z,6.60
2018-12-27T18:50:49.237Z,6.60
2018-12-27T18:53:19.967Z,6.60
2018-12-27T18:55:50.700Z,6.60
2018-12-27T18:58:21.355Z,6.60
2018-12-27T19:00:52.130Z,6.60
2018-12-27T19:03:22.884Z,6.60
2018-12-27T19:05:53.544Z,6.70
2018-12-27T19:08:24.279Z,6.70
2018-12-27T19:11:30.699Z,6.70
2018-12-27T19:14:01.381Z,6.60
2018-12-27T19:16:32.052Z,6.60
2018-12-27T19:19:02.803Z,6.60
2018-12-27T19:22:08.072Z,6.70
2018-12-27T19:24:38.792Z,6.70
2018-12-27T19:27:09.452Z,6.70
2018-12-27T19:29:40.111Z,6.80
2018-12-27T19:32:10.892Z,6.80
2018-12-27T19:34:41.695Z,6.80
2018-12-27T19:37:12.427Z,6.70
2018-12-27T19:39:43.107Z,6.70
2018-12-27T19:42:13.826Z,6.70
2018-12-27T19:44:44.490Z,6.80
2018-12-27T19:47:15.354Z,6.70
2018-12-27T19:49:45.985Z,6.80
2018-12-27T19:52:16.798Z,6.80
2018-12-27T19:54:47.474Z,6.70
2018-12-27T19:57:18.434Z,6.80
2018-12-27T19:59:49.101Z,6.80
2018-12-27T20:02:19.774Z,6.70
2018-12-27T20:04:50.531Z,6.70
2018-12-27T20:07:21.204Z,6.70
2018-12-27T20:09:51.948Z,6.70
2018-12-27T20:12:22.677Z,6.70
2018-12-27T20:14:53.379Z,6.80
2018-12-27T20:17:25.065Z,6.80
2018-12-27T20:19:55.847Z,6.80
2018-12-27T20:22:26.674Z,6.80
2018-12-27T20:24:57.430Z,6.70
2018-12-27T20:27:28.095Z,6.70
2018-12-27T20:29:58.839Z,6.80
2018-12-27T20:32:29.555Z,6.80
2018-12-27T20:35:00.312Z,6.80
2018-12-27T20:37:31.041Z,6.80
2018-12-27T20:40:01.755Z,6.80
2018-12-27T20:42:32.476Z,6.70
2018-12-27T20:45:03.265Z,6.80
2018-12-27T20:47:34.825Z,6.90
2018-12-27T20:50:05.983Z,6.80
2018-12-27T20:52:36.635Z,6.70
2018-12-27T20:55:07.332Z,6.80
2018-12-27T20:57:38.060Z,6.80
2018-12-27T21:00:09.070Z,6.80
2018-12-27T21:02:39.711Z,6.80
2018-12-27T21:05:10.419Z,6.80
2018-12-27T21:07:41.096Z,6.80
2018-12-27T22:02:45.917Z,5.80
2018-12-27T22:05:16.688Z,5.80
2018-12-27T22:07:47.368Z,5.90
2018-12-27T23:02:37.609Z,5.70
2018-12-27T23:05:08.298Z,5.80
2018-12-27T23:07:39.000Z,5.80
